Time;durP1;ratioP1;P1;durP2;ratioP2;P2;SDS_P1;SDS_P2;PMS_P1;PMS_P2;Temp;Humidity;BMP_temperature;BMP_pressure;BME280_temperature;BME280_humidity;BME280_pressure;Samples;Min_cycle;Max_cycle;Signal;HPM_P1;HPM_P2
2023/03/19 00:00:48;;;;;;;3.70;2.20;;;18.60;86.30;;;;;;6219198;23;20176;-95
2023/03/19 00:03:21;;;;;;;4.33;1.97;;;18.70;87.30;;;;;;6218961;23;20505;-96
2023/03/19 00:05:55;;;;;;;5.83;1.67;;;19.00;83.20;;;;;;6219645;23;20188;-95
2023/03/19 00:08:26;;;;;;;4.83;1.93;;;19.20;83.60;;;;;;6218419;23;20270;-95
2023/03/19 00:10:57;;;;;;;4.60;2.17;;;19.40;82.50;;;;;;6219455;23;20184;-96
2023/03/19 00:13:28;;;;;;;3.80;2.10;;;19.40;82.40;;;;;;6219905;23;20172;-95
2023/03/19 00:15:59;;;;;;;3.50;2.03;;;19.10;84.50;;;;;;6222051;23;20183;-96
2023/03/19 00:18:34;;;;;;;4.23;1.80;;;18.90;88.30;;;;;;6220435;23;20173;-96
2023/03/19 00:21:05;;;;;;;3.37;1.87;;;18.80;89.10;;;;;;6224371;23;20178;-96
2023/03/19 00:23:37;;;;;;;4.20;2.17;;;18.90;84.00;;;;;;6223231;23;20176;-96
2023/03/19 00:26:08;;;;;;;7.10;2.40;;;18.70;82.60;;;;;;6223859;23;20172;-96
2023/03/19 00:28:40;;;;;;;1.90;1.60;;;18.30;81.90;;;;;;6221621;23;20402;-96
2023/03/19 00:31:13;;;;;;;3.40;1.70;;;18.10;86.30;;;;;;6222385;23;20655;-96
2023/03/19 00:33:47;;;;;;;3.00;2.17;;;17.90;84.90;;;;;;6196265;23;20220;-96
2023/03/19 00:36:19;;;;;;;3.77;2.20;;;17.70;85.40;;;;;;6196657;23;20188;-96
2023/03/19 00:38:50;;;;;;;3.53;2.10;;;17.60;84.90;;;;;;6221988;23;20187;-96
2023/03/19 00:41:22;;;;;;;5.63;2.20;;;17.50;85.60;;;;;;6222340;23;20168;-95
2023/03/19 00:43:57;;;;;;;2.83;1.93;;;17.40;83.70;;;;;;6221822;23;20172;-96
2023/03/19 00:46:28;;;;;;;2.53;1.90;;;17.30;85.90;;;;;;6223729;23;20180;-95
2023/03/19 00:49:01;;;;;;;5.07;2.13;;;17.10;82.90;;;;;;6228189;23;20204;-94
2023/03/19 00:51:33;;;;;;;4.57;2.30;;;17.00;81.40;;;;;;6243691;23;20167;-93
2023/03/19 00:54:05;;;;;;;3.37;2.13;;;17.00;83.00;;;;;;6243185;23;20244;-94
2023/03/19 00:56:37;;;;;;;3.73;2.20;;;16.90;83.60;;;;;;6230743;23;20164;-94
2023/03/19 00:59:08;;;;;;;5.80;2.47;;;16.80;84.30;;;;;;6228378;23;20188;-95
2023/03/19 01:01:39;;;;;;;5.90;2.27;;;16.70;84.80;;;;;;6221050;23;20180;-94
2023/03/19 01:04:13;;;;;;;5.30;2.47;;;16.50;85.30;;;;;;6219933;23;20172;-94
2023/03/19 01:06:45;;;;;;;3.07;2.20;;;16.40;84.80;;;;;;6218890;23;20250;-94
2023/03/19 01:09:17;;;;;;;5.40;2.50;;;16.40;83.00;;;;;;6218192;23;20282;-95
2023/03/19 01:11:49;;;;;;;4.13;2.20;;;16.40;83.70;;;;;;6218564;23;20196;-94
2023/03/19 01:14:20;;;;;;;5.80;2.40;;;16.30;83.50;;;;;;6218965;23;20234;-95
2023/03/19 01:16:52;;;;;;;5.87;2.67;;;16.30;82.50;;;;;;6193046;23;20176;-94
2023/03/19 01:19:25;;;;;;;3.40;2.13;;;16.20;86.40;;;;;;6217546;23;20673;-95
2023/03/19 01:21:57;;;;;;;3.63;2.43;;;16.20;86.40;;;;;;6219320;23;20168;-96
2023/03/19 01:24:32;;;;;;;6.63;3.10;;;16.10;86.10;;;;;;6219581;23;20168;-95
2023/03/19 01:27:04;;;;;;;8.43;2.80;;;15.80;88.10;;;;;;6219295;23;20202;-96
2023/03/19 01:29:36;;;;;;;7.60;2.77;;;15.70;87.70;;;;;;6219290;23;20208;-96
2023/03/19 01:32:08;;;;;;;13.60;4.20;;;15.60;88.80;;;;;;6219903;23;20180;-96
2023/03/19 01:34:41;;;;;;;4.57;2.23;;;15.40;92.00;;;;;;6222420;23;20165;-95
2023/03/19 01:37:13;;;;;;;6.83;2.93;;;15.20;92.00;;;;;;6219883;23;20184;-96
2023/03/19 01:39:44;;;;;;;5.67;3.03;;;15.10;91.90;;;;;;6221250;23;20173;-96
2023/03/19 01:42:16;;;;;;;5.00;2.80;;;14.90;92.30;;;;;;6220072;23;20173;-96
2023/03/19 01:44:48;;;;;;;5.90;2.67;;;14.80;92.40;;;;;;6193369;23;20169;-95
2023/03/19 01:47:24;;;;;;;9.33;3.30;;;14.60;93.70;;;;;;6217671;23;20161;-95
2023/03/19 01:49:59;;;;;;;6.80;3.13;;;14.40;94.30;;;;;;6218209;23;20768;-95
2023/03/19 01:52:34;;;;;;;4.20;2.47;;;14.30;94.00;;;;;;6219691;23;20165;-95
2023/03/19 01:55:08;;;;;;;4.70;2.77;;;14.20;94.40;;;;;;6219095;23;20172;-95
2023/03/19 01:57:39;;;;;;;6.20;2.90;;;14.20;94.50;;;;;;6216692;23;20631;-95
2023/03/19 02:00:13;;;;;;;7.93;4.23;;;14.00;95.40;;;;;;6218042;23;20627;-95
2023/03/19 02:02:46;;;;;;;15.63;7.73;;;14.00;95.70;;;;;;6218763;23;20184;-94
2023/03/19 02:05:24;;;;;;;21.73;10.67;;;13.80;95.80;;;;;;6218019;23;20169;-95
2023/03/19 02:08:00;;;;;;;27.63;12.50;;;13.80;96.20;;;;;;6217654;23;20169;-94
2023/03/19 02:10:31;;;;;;;21.03;10.70;;;13.60;96.60;;;;;;6217724;23;20238;-93
2023/03/19 02:13:03;;;;;;;12.17;7.63;;;13.50;97.30;;;;;;6217826;23;20173;-94
2023/03/19 02:15:34;;;;;;;12.67;7.53;;;13.40;97.90;;;;;;6191294;23;20172;-93
2023/03/19 02:18:06;;;;;;;24.13;17.73;;;13.30;98.40;;;;;;6217695;23;20537;-94
2023/03/19 02:20:45;;;;;;;22.37;19.93;;;13.20;98.60;;;;;;6216763;23;20165;-94
2023/03/19 02:23:26;;;;;;;15.10;11.77;;;13.00;99.20;;;;;;6217297;23;20180;-94
2023/03/19 02:26:05;;;;;;;13.00;8.80;;;12.90;98.90;;;;;;6217851;23;20169;-96
2023/03/19 02:28:40;;;;;;;12.27;5.97;;;12.80;99.90;;;;;;6217186;23;20169;-96
2023/03/19 02:31:15;;;;;;;8.03;4.50;;;12.70;99.90;;;;;;6217411;23;20200;-96
2023/03/19 02:33:58;;;;;;;7.07;4.37;;;12.60;99.90;;;;;;6218529;23;20179;-96
2023/03/19 02:36:36;;;;;;;5.97;4.47;;;12.50;99.90;;;;;;6218791;23;20199;-96
2023/03/19 02:39:12;;;;;;;6.70;4.27;;;12.40;99.90;;;;;;6220219;23;20494;-94
2023/03/19 02:41:46;;;;;;;8.27;4.07;;;12.30;99.90;;;;;;6194110;23;20168;-95
2023/03/19 02:44:18;;;;;;;8.50;3.43;;;12.20;99.90;;;;;;6219814;23;20169;-96
2023/03/19 02:46:51;;;;;;;5.77;3.93;;;12.10;99.90;;;;;;6219336;23;20195;-94
2023/03/19 02:49:22;;;;;;;8.77;3.73;;;12.00;99.90;;;;;;6218951;23;20215;-96
2023/03/19 02:51:53;;;;;;;4.90;3.50;;;12.00;99.90;;;;;;6219971;23;20180;-95
2023/03/19 02:54:24;;;;;;;9.47;3.70;;;12.00;99.90;;;;;;6219836;23;20165;-96
2023/03/19 02:56:58;;;;;;;8.50;3.67;;;11.90;99.90;;;;;;6219985;23;20180;-96
2023/03/19 02:59:30;;;;;;;13.50;4.87;;;11.80;99.90;;;;;;6236511;23;20180;-96
2023/03/19 03:02:01;;;;;;;12.13;6.40;;;11.70;99.90;;;;;;6216846;23;20157;-94
2023/03/19 03:04:32;;;;;;;22.00;10.10;;;11.60;99.90;;;;;;6236825;23;20196;-94
2023/03/19 03:07:03;;;;;;;25.87;11.37;;;11.50;99.90;;;;;;6224031;23;20169;-93
2023/03/19 03:09:36;;;;;;;23.07;12.03;;;11.50;99.90;;;;;;6195647;23;20192;-94
2023/03/19 03:12:10;;;;;;;32.53;13.97;;;11.40;99.90;;;;;;6219690;23;20173;-93
2023/03/19 03:14:42;;;;;;;15.40;9.03;;;11.40;99.90;;;;;;6219989;23;20168;-93
2023/03/19 03:17:14;;;;;;;18.07;7.70;;;11.30;99.90;;;;;;6195569;23;20227;-95
2023/03/19 03:19:46;;;;;;;11.50;5.37;;;11.20;99.90;;;;;;6221851;23;20242;-94
2023/03/19 03:22:17;;;;;;;13.07;4.73;;;11.20;99.90;;;;;;6224381;23;20183;-95
2023/03/19 03:24:49;;;;;;;6.33;3.93;;;11.20;99.90;;;;;;6241285;23;20187;-94
2023/03/19 03:27:22;;;;;;;7.53;3.67;;;11.10;99.90;;;;;;6239625;23;20208;-93
2023/03/19 03:29:54;;;;;;;6.23;3.27;;;11.10;99.90;;;;;;6241510;23;20210;-95
2023/03/19 03:32:26;;;;;;;9.80;3.77;;;11.10;99.90;;;;;;6242189;23;20180;-94
2023/03/19 03:34:58;;;;;;;6.43;3.50;;;11.00;99.90;;;;;;6241016;23;20180;-95
2023/03/19 03:37:30;;;;;;;5.17;2.80;;;11.00;99.90;;;;;;6236414;23;20195;-95
2023/03/19 03:40:02;;;;;;;4.43;3.10;;;10.90;99.90;;;;;;6220257;23;20196;-95
2023/03/19 03:42:37;;;;;;;5.73;2.80;;;10.90;99.90;;;;;;6220686;23;20176;-95
2023/03/19 03:45:09;;;;;;;3.80;2.47;;;10.90;99.90;;;;;;6219577;23;20176;-95
2023/03/19 03:47:41;;;;;;;5.10;2.43;;;10.90;99.90;;;;;;6218964;23;20180;-94
2023/03/19 03:50:16;;;;;;;4.07;2.53;;;10.80;99.90;;;;;;6219414;23;20688;-96
2023/03/19 03:52:47;;;;;;;6.73;3.00;;;10.80;99.90;;;;;;6220527;23;20544;-95
2023/03/19 03:55:19;;;;;;;4.90;3.37;;;10.70;99.90;;;;;;6220093;23;20172;-94
2023/03/19 03:57:52;;;;;;;7.50;3.00;;;10.70;99.90;;;;;;6219208;23;20207;-96
2023/03/19 04:00:25;;;;;;;7.37;3.17;;;10.70;99.90;;;;;;6220931;23;20234;-96
2023/03/19 04:02:56;;;;;;;7.20;3.20;;;10.70;99.90;;;;;;6220605;23;20562;-94
2023/03/19 04:05:27;;;;;;;7.60;3.77;;;10.70;99.90;;;;;;6219478;23;20204;-93
2023/03/19 04:07:59;;;;;;;5.00;3.40;;;10.70;99.90;;;;;;6216700;23;20238;-94
2023/03/19 04:10:30;;;;;;;7.03;3.30;;;10.60;99.90;;;;;;6218186;23;20196;-94
2023/03/19 04:13:06;;;;;;;6.60;4.30;;;10.60;99.90;;;;;;6219755;23;20175;-94
2023/03/19 04:15:37;;;;;;;9.47;5.00;;;10.60;99.90;;;;;;6219178;23;20169;-94
2023/03/19 04:18:08;;;;;;;14.83;6.40;;;10.60;99.90;;;;;;6191984;23;20177;-93
2023/03/19 04:20:40;;;;;;;10.10;5.73;;;10.50;99.90;;;;;;6220792;23;20165;-94
2023/03/19 04:23:11;;;;;;;11.43;6.00;;;10.50;99.90;;;;;;6217597;23;20227;-94
2023/03/19 04:25:42;;;;;;;9.80;5.37;;;10.50;99.90;;;;;;6217642;23;20183;-92
2023/03/19 04:28:16;;;;;;;8.57;4.20;;;10.50;99.90;;;;;;6216844;23;20173;-89
2023/03/19 04:30:48;;;;;;;11.53;5.07;;;10.50;99.90;;;;;;6213887;23;20227;-90
2023/03/19 04:33:19;;;;;;;8.27;5.07;;;10.50;99.90;;;;;;6214932;23;20182;-89
2023/03/19 04:35:51;;;;;;;9.40;5.10;;;10.50;99.90;;;;;;6214406;23;20239;-90
2023/03/19 04:38:25;;;;;;;10.40;5.13;;;10.50;99.90;;;;;;6190592;23;20176;-90
2023/03/19 04:40:58;;;;;;;10.83;5.50;;;10.50;99.90;;;;;;6219679;23;20670;-89
2023/03/19 04:43:31;;;;;;;9.67;5.80;;;10.40;99.90;;;;;;6219417;23;20252;-89
2023/03/19 04:46:03;;;;;;;6.83;5.23;;;10.50;99.90;;;;;;6219355;23;20173;-89
2023/03/19 04:48:36;;;;;;;9.40;4.90;;;10.40;99.90;;;;;;6219673;23;20191;-90
2023/03/19 04:51:12;;;;;;;8.23;4.80;;;10.40;99.90;;;;;;6220663;23;20211;-89
2023/03/19 04:53:43;;;;;;;7.67;4.77;;;10.40;99.90;;;;;;6220960;23;20160;-90
2023/03/19 04:56:16;;;;;;;10.27;4.80;;;10.40;99.90;;;;;;6222690;23;20177;-89
2023/03/19 04:58:50;;;;;;;7.67;5.13;;;10.40;99.90;;;;;;6219761;23;20207;-89
2023/03/19 05:01:22;;;;;;;9.73;5.37;;;10.40;99.90;;;;;;6218404;23;20177;-90
2023/03/19 05:03:54;;;;;;;7.13;4.13;;;10.40;99.90;;;;;;6219290;23;20207;-90
2023/03/19 05:06:26;;;;;;;6.87;4.50;;;10.40;99.90;;;;;;6226967;23;20177;-89
2023/03/19 05:08:57;;;;;;;8.47;3.60;;;10.40;99.90;;;;;;6241102;23;20246;-90
2023/03/19 05:11:30;;;;;;;5.70;3.57;;;10.30;99.90;;;;;;6240918;23;20230;-90
2023/03/19 05:14:05;;;;;;;6.43;3.40;;;10.30;99.90;;;;;;6229045;23;20180;-87
2023/03/19 05:16:37;;;;;;;4.60;3.07;;;10.40;99.90;;;;;;6222763;23;20176;-90
2023/03/19 05:19:09;;;;;;;6.03;3.27;;;10.30;99.90;;;;;;6195415;23;20187;-90
2023/03/19 05:21:43;;;;;;;6.57;3.40;;;10.30;99.90;;;;;;6219166;23;20171;-89
2023/03/19 05:24:15;;;;;;;5.40;2.87;;;10.40;99.90;;;;;;6219724;23;20199;-89
2023/03/19 05:26:47;;;;;;;6.37;2.87;;;10.40;99.90;;;;;;6220296;23;20223;-89
2023/03/19 05:29:21;;;;;;;5.20;2.70;;;10.40;99.90;;;;;;6217770;23;20284;-88
2023/03/19 05:31:53;;;;;;;4.30;2.63;;;10.40;99.90;;;;;;6218233;23;20195;-88
2023/03/19 05:34:24;;;;;;;3.47;2.37;;;10.60;99.90;;;;;;6218210;23;20184;-88
2023/03/19 05:36:56;;;;;;;5.03;2.67;;;10.60;99.90;;;;;;6218525;23;20176;-89
2023/03/19 05:39:29;;;;;;;4.60;2.40;;;10.70;99.90;;;;;;6216282;23;20172;-89
2023/03/19 05:42:00;;;;;;;3.97;2.30;;;10.70;99.90;;;;;;6216596;23;20251;-90
2023/03/19 05:44:34;;;;;;;4.60;1.90;;;10.90;99.90;;;;;;6216945;23;20227;-90
2023/03/19 05:47:07;;;;;;;2.93;2.23;;;10.90;99.90;;;;;;6217732;23;20176;-90
2023/03/19 05:49:39;;;;;;;4.07;2.07;;;10.90;99.90;;;;;;6216687;23;20161;-89
2023/03/19 05:52:11;;;;;;;3.33;2.10;;;10.90;99.90;;;;;;6217120;23;20689;-88
2023/03/19 05:54:42;;;;;;;4.47;2.20;;;11.00;99.90;;;;;;6217104;23;20608;-89
2023/03/19 05:57:15;;;;;;;2.77;2.10;;;11.00;99.90;;;;;;6190077;23;20177;-92
2023/03/19 05:59:48;;;;;;;2.80;1.90;;;10.90;99.90;;;;;;6217091;23;20180;-90
2023/03/19 06:02:20;;;;;;;4.87;2.30;;;10.90;99.90;;;;;;6217559;23;20490;-90
2023/03/19 06:04:53;;;;;;;3.90;1.93;;;10.90;99.90;;;;;;6218263;23;20164;-90
2023/03/19 06:07:24;;;;;;;3.77;1.93;;;10.90;99.90;;;;;;6216414;23;20195;-90
2023/03/19 06:09:56;;;;;;;2.70;2.20;;;10.90;99.90;;;;;;6217268;23;20679;-88
2023/03/19 06:12:28;;;;;;;2.33;2.00;;;10.90;99.90;;;;;;6218127;23;20254;-90
2023/03/19 06:15:03;;;;;;;3.63;1.90;;;10.80;99.90;;;;;;6216939;23;20172;-89
2023/03/19 06:17:35;;;;;;;3.63;2.00;;;10.70;99.90;;;;;;6216741;23;20251;-89
2023/03/19 06:20:07;;;;;;;4.37;1.90;;;10.60;99.90;;;;;;6217299;23;20173;-89
2023/03/19 06:22:39;;;;;;;4.33;2.00;;;10.60;99.90;;;;;;6217511;23;20177;-88
2023/03/19 06:25:11;;;;;;;4.07;1.97;;;10.50;99.90;;;;;;6218587;23;20493;-95
2023/03/19 06:27:46;;;;;;;6.07;1.93;;;10.50;99.90;;;;;;6219629;23;20254;-95
2023/03/19 06:30:20;;;;;;;3.13;1.87;;;10.50;99.90;;;;;;6218209;23;20195;-89
2023/03/19 06:32:51;;;;;;;3.17;2.17;;;10.50;99.90;;;;;;6216814;23;20196;-88
2023/03/19 06:35:22;;;;;;;3.00;2.13;;;10.50;99.90;;;;;;6216375;23;20635;-89
2023/03/19 06:37:54;;;;;;;5.63;2.37;;;10.40;99.90;;;;;;6216171;23;20227;-89
2023/03/19 06:40:26;;;;;;;3.33;2.20;;;10.40;99.90;;;;;;6216548;23;20165;-90
2023/03/19 06:42:57;;;;;;;4.87;2.07;;;10.30;99.90;;;;;;6216435;23;20177;-89
2023/03/19 06:45:31;;;;;;;3.60;1.83;;;10.20;99.90;;;;;;6216348;23;20168;-90
2023/03/19 06:48:03;;;;;;;4.00;2.10;;;10.20;99.90;;;;;;6216508;23;20208;-90
2023/03/19 06:50:34;;;;;;;3.70;2.20;;;10.10;99.90;;;;;;6216885;23;20616;-90
2023/03/19 06:53:06;;;;;;;3.20;1.90;;;10.10;99.90;;;;;;6191212;23;20231;-89
2023/03/19 06:55:38;;;;;;;2.47;1.80;;;10.00;99.90;;;;;;6216833;23;20179;-90
2023/03/19 06:58:10;;;;;;;3.17;1.73;;;10.00;99.90;;;;;;6215123;23;20188;-89
2023/03/19 07:00:44;;;;;;;3.57;1.90;;;10.00;99.90;;;;;;6216255;23;20176;-90
2023/03/19 07:03:16;;;;;;;2.63;1.93;;;10.00;99.90;;;;;;6191544;23;20234;-88
2023/03/19 07:05:49;;;;;;;2.57;1.70;;;9.90;99.90;;;;;;6191744;23;20230;-89
2023/03/19 07:08:20;;;;;;;2.77;1.90;;;9.90;99.90;;;;;;6216922;23;20541;-89
2023/03/19 07:10:54;;;;;;;5.03;1.90;;;9.80;99.90;;;;;;6216949;23;20176;-88
2023/03/19 07:13:27;;;;;;;3.23;2.03;;;9.80;99.90;;;;;;6217177;23;20737;-91
2023/03/19 07:16:01;;;;;;;3.60;1.80;;;9.80;99.90;;;;;;6219518;23;20173;-91
2023/03/19 07:18:33;;;;;;;2.33;1.67;;;9.80;99.90;;;;;;6240365;23;20180;-92
2023/03/19 07:21:05;;;;;;;2.57;1.77;;;9.80;99.90;;;;;;6241197;23;20200;-89
2023/03/19 07:23:37;;;;;;;4.50;2.00;;;9.80;99.90;;;;;;6231697;23;20180;-88
2023/03/19 07:26:10;;;;;;;4.60;2.17;;;9.70;99.90;;;;;;6223445;23;20173;-88
2023/03/19 07:28:42;;;;;;;6.60;2.37;;;9.70;99.90;;;;;;6219832;23;20650;-89
2023/03/19 07:31:16;;;;;;;3.47;2.10;;;9.60;99.90;;;;;;6218141;23;20176;-88
2023/03/19 07:33:47;;;;;;;4.13;2.10;;;9.60;99.90;;;;;;6192554;23;20215;-89
2023/03/19 07:36:20;;;;;;;3.10;2.07;;;9.60;99.90;;;;;;6218010;23;20180;-88
2023/03/19 07:38:52;;;;;;;4.80;2.00;;;9.50;99.90;;;;;;6217062;23;20188;-89
2023/03/19 07:41:23;;;;;;;4.10;2.30;;;9.50;99.90;;;;;;6217252;23;20165;-88
2023/03/19 07:43:55;;;;;;;2.90;2.20;;;9.40;99.90;;;;;;6216721;23;20184;-89
2023/03/19 07:46:29;;;;;;;5.43;2.30;;;9.40;99.90;;;;;;6216789;23;20179;-88
2023/03/19 07:49:01;;;;;;;5.30;2.67;;;9.40;99.90;;;;;;6215776;23;20203;-89
2023/03/19 07:51:32;;;;;;;3.70;2.63;;;9.40;99.90;;;;;;6217093;23;20234;-89
2023/03/19 07:54:04;;;;;;;3.37;2.30;;;9.40;99.90;;;;;;6216104;23;20200;-89
2023/03/19 07:56:37;;;;;;;4.47;2.77;;;9.40;99.90;;;;;;6191113;23;20176;-90
2023/03/19 07:59:10;;;;;;;3.83;2.43;;;9.40;99.90;;;;;;6215539;23;20192;-89
2023/03/19 08:01:43;;;;;;;5.00;2.63;;;9.40;99.90;;;;;;6216270;23;20179;-90
2023/03/19 08:04:15;;;;;;;5.07;2.70;;;9.40;99.90;;;;;;6217099;23;20587;-89
2023/03/19 08:06:47;;;;;;;5.10;2.73;;;9.30;99.90;;;;;;6217770;23;20169;-90
2023/03/19 08:09:19;;;;;;;3.67;2.63;;;9.30;99.90;;;;;;6214977;23;20184;-89
2023/03/19 08:11:52;;;;;;;3.60;2.30;;;9.20;99.90;;;;;;6216002;23;20197;-90
2023/03/19 08:14:23;;;;;;;3.03;2.50;;;9.20;99.90;;;;;;6217187;23;20180;-89
2023/03/19 08:16:57;;;;;;;3.73;1.97;;;9.10;99.90;;;;;;6219034;23;20176;-89
2023/03/19 08:19:29;;;;;;;4.27;2.53;;;9.10;99.90;;;;;;6216978;23;20242;-90
2023/03/19 08:22:01;;;;;;;3.57;2.50;;;9.10;99.90;;;;;;6218677;23;20499;-89
2023/03/19 08:24:33;;;;;;;3.53;2.57;;;9.10;99.90;;;;;;6218614;23;20523;-89
2023/03/19 08:27:04;;;;;;;4.23;2.43;;;9.10;99.90;;;;;;6218221;23;20687;-89
2023/03/19 08:29:35;;;;;;;5.13;2.50;;;9.10;99.90;;;;;;6217832;23;20161;-89
2023/03/19 08:32:10;;;;;;;4.33;2.40;;;9.10;99.90;;;;;;6218139;23;20585;-89
2023/03/19 08:34:42;;;;;;;2.80;2.30;;;9.00;99.90;;;;;;6217401;23;20176;-89
2023/03/19 08:37:13;;;;;;;7.90;3.43;;;8.90;99.90;;;;;;6217833;23;20615;-89
2023/03/19 08:39:45;;;;;;;5.30;3.00;;;8.90;99.90;;;;;;6217821;23;20615;-89
2023/03/19 08:42:16;;;;;;;2.90;1.80;;;8.90;99.90;;;;;;6217313;23;20230;-89
2023/03/19 08:44:47;;;;;;;3.80;2.03;;;8.80;99.90;;;;;;6219625;23;20176;-88
2023/03/19 08:47:23;;;;;;;2.93;1.70;;;8.80;99.90;;;;;;6221034;23;20176;-90
2023/03/19 08:49:54;;;;;;;2.37;1.67;;;8.80;99.90;;;;;;6221193;23;20176;-89
2023/03/19 08:52:26;;;;;;;3.60;2.30;;;8.80;99.90;;;;;;6220290;23;20176;-88
2023/03/19 08:54:57;;;;;;;2.40;1.77;;;8.70;99.90;;;;;;6230894;23;20212;-90
2023/03/19 08:57:31;;;;;;;2.90;1.90;;;8.70;99.90;;;;;;6240214;23;20181;-90
2023/03/19 09:00:03;;;;;;;2.40;1.80;;;8.70;99.90;;;;;;6242024;23;20160;-90
2023/03/19 09:02:37;;;;;;;3.00;1.97;;;8.60;99.90;;;;;;6236939;23;20176;-89
2023/03/19 09:05:09;;;;;;;5.33;1.80;;;8.60;99.90;;;;;;6229892;23;20187;-90
2023/03/19 09:07:41;;;;;;;2.37;1.80;;;8.50;99.90;;;;;;6229394;23;20172;-89
2023/03/19 09:10:12;;;;;;;3.07;2.07;;;8.40;99.90;;;;;;6228977;23;20176;-89
2023/03/19 09:12:43;;;;;;;1.97;1.60;;;8.40;99.90;;;;;;6224976;23;20200;-89
2023/03/19 09:15:18;;;;;;;3.17;2.43;;;8.40;99.90;;;;;;6226159;23;20180;-89
2023/03/19 09:17:52;;;;;;;7.63;1.77;;;8.30;99.90;;;;;;6227514;23;20217;-89
2023/03/19 09:20:23;;;;;;;2.80;1.63;;;8.30;99.90;;;;;;6228985;23;20194;-90
2023/03/19 09:22:55;;;;;;;2.53;1.73;;;8.30;99.90;;;;;;6230890;23;20180;-89
2023/03/19 09:25:26;;;;;;;2.47;1.70;;;8.30;99.90;;;;;;6242833;23;20180;-90
2023/03/19 09:27:57;;;;;;;4.73;1.97;;;8.20;99.90;;;;;;6239824;23;20208;-89
2023/03/19 09:30:29;;;;;;;3.47;2.20;;;8.20;99.90;;;;;;6232653;23;20180;-88
2023/03/19 09:33:03;;;;;;;4.00;1.90;;;8.10;99.90;;;;;;6230699;23;20577;-88
2023/03/19 09:35:37;;;;;;;1.93;1.60;;;8.10;99.90;;;;;;6230067;23;20179;-88
2023/03/19 09:38:08;;;;;;;2.53;1.70;;;8.10;99.90;;;;;;6229435;23;20180;-87
2023/03/19 09:40:45;;;;;;;2.03;1.70;;;8.10;99.90;;;;;;6223125;23;20172;-88
2023/03/19 09:43:50;;;;;;;4.27;1.57;;;8.10;99.90;;;;;;6221896;23;20172;-88
2023/03/19 09:46:29;;;;;;;2.40;1.80;;;8.00;99.90;;;;;;6196666;23;20172;-89
2023/03/19 09:49:11;;;;;;;2.03;1.77;;;8.00;99.90;;;;;;6222172;23;20238;-88
2023/03/19 09:51:47;;;;;;;2.50;1.80;;;8.00;99.90;;;;;;6221335;23;20165;-88
2023/03/19 09:54:31;;;;;;;2.97;2.00;;;7.90;99.90;;;;;;6221130;23;20239;-89
2023/03/19 09:57:03;;;;;;;4.07;2.13;;;7.90;99.90;;;;;;6220517;23;20179;-89
2023/03/19 09:59:35;;;;;;;3.00;1.90;;;7.80;99.90;;;;;;6219478;23;20320;-89
2023/03/19 10:02:32;;;;;;;2.50;1.83;;;7.80;99.90;;;;;;6220073;23;20263;-89
2023/03/19 10:05:19;;;;;;;2.50;1.83;;;7.80;99.90;;;;;;6220913;23;20224;-89
2023/03/19 10:08:05;;;;;;;4.37;1.80;;;7.80;99.90;;;;;;6195009;23;20180;-90
2023/03/19 10:10:50;;;;;;;2.07;1.87;;;7.80;99.90;;;;;;6221429;23;20164;-88
2023/03/19 10:13:38;;;;;;;2.33;1.80;;;7.70;99.90;;;;;;6220511;23;20670;-89
2023/03/19 10:16:17;;;;;;;3.50;2.10;;;7.70;99.90;;;;;;6219626;23;20196;-88
2023/03/19 10:18:51;;;;;;;3.30;1.60;;;7.70;99.90;;;;;;6215960;23;20476;-89
2023/03/19 10:21:33;;;;;;;3.57;1.63;;;7.60;99.90;;;;;;6190834;23;20169;-89
2023/03/19 10:24:08;;;;;;;3.17;1.97;;;7.60;99.90;;;;;;6217228;23;20165;-90
2023/03/19 10:26:40;;;;;;;4.70;1.97;;;7.60;99.90;;;;;;6217309;23;20168;-88
2023/03/19 10:29:15;;;;;;;2.97;1.87;;;7.50;99.90;;;;;;6215090;23;20185;-89
2023/03/19 10:31:54;;;;;;;4.90;2.10;;;7.50;99.90;;;;;;6216223;23;20175;-89
2023/03/19 10:34:43;;;;;;;3.60;1.87;;;7.50;99.90;;;;;;6216157;23;20225;-89
2023/03/19 10:37:20;;;;;;;3.30;2.10;;;7.50;99.90;;;;;;6214960;23;20195;-90
2023/03/19 10:39:54;;;;;;;3.37;1.70;;;7.50;99.90;;;;;;6219035;23;20168;-88
2023/03/19 10:42:45;;;;;;;3.60;1.87;;;7.50;99.90;;;;;;6218954;23;20599;-89
2023/03/19 10:45:25;;;;;;;2.93;1.93;;;7.50;99.90;;;;;;6216946;23;20180;-87
2023/03/19 10:47:58;;;;;;;3.00;2.00;;;7.50;99.90;;;;;;6215805;23;20204;-88
2023/03/19 10:50:35;;;;;;;5.80;1.67;;;7.40;99.90;;;;;;6216562;23;20223;-88
2023/03/19 10:53:34;;;;;;;4.07;1.87;;;7.40;99.90;;;;;;6215882;23;20222;-88
2023/03/19 10:56:07;;;;;;;2.30;1.90;;;7.40;99.90;;;;;;6216748;23;20164;-88
2023/03/19 10:58:56;;;;;;;3.83;1.73;;;7.40;99.90;;;;;;6215552;23;20263;-88
2023/03/19 11:01:33;;;;;;;5.70;2.10;;;7.30;99.90;;;;;;6215878;23;20487;-88
2023/03/19 11:04:15;;;;;;;4.43;2.00;;;7.40;99.90;;;;;;6217327;23;20565;-88
2023/03/19 11:06:51;;;;;;;3.73;1.87;;;7.30;99.90;;;;;;6216345;23;20547;-89
2023/03/19 11:09:33;;;;;;;3.07;2.20;;;7.30;99.90;;;;;;6190097;23;20164;-90
2023/03/19 11:12:16;;;;;;;2.73;1.80;;;7.30;99.90;;;;;;6190541;23;20164;-89
2023/03/19 11:14:51;;;;;;;5.97;2.20;;;7.30;99.90;;;;;;6216425;23;20258;-88
2023/03/19 11:17:27;;;;;;;3.20;2.13;;;7.30;99.90;;;;;;6192600;23;20168;-89
2023/03/19 11:20:00;;;;;;;5.43;2.20;;;7.30;99.90;;;;;;6218986;23;20164;-89
2023/03/19 11:22:35;;;;;;;3.37;1.90;;;7.30;99.90;;;;;;6216777;23;20176;-89
2023/03/19 11:25:19;;;;;;;2.60;1.77;;;7.20;99.90;;;;;;6217017;23;20184;-88
2023/03/19 11:28:00;;;;;;;2.60;1.80;;;7.20;99.90;;;;;;6216297;23;20178;-89
2023/03/19 11:30:42;;;;;;;2.40;1.87;;;7.20;99.90;;;;;;6233339;23;20191;-90
2023/03/19 11:33:43;;;;;;;3.63;2.10;;;7.20;99.90;;;;;;6241581;23;20195;-89
2023/03/19 11:36:22;;;;;;;2.93;2.17;;;7.20;99.90;;;;;;6219274;23;20176;-89
2023/03/19 11:39:11;;;;;;;3.77;2.30;;;7.20;99.90;;;;;;6191550;23;20176;-88
2023/03/19 11:41:58;;;;;;;6.77;1.80;;;7.20;99.90;;;;;;6215600;23;20192;-88
2023/03/19 11:44:34;;;;;;;3.23;1.83;;;7.20;99.90;;;;;;6190522;23;20187;-89
2023/03/19 11:47:15;;;;;;;4.03;2.00;;;7.20;99.90;;;;;;6216865;23;20172;-89
2023/03/19 11:50:17;;;;;;;3.47;2.20;;;7.20;99.90;;;;;;6218114;23;20930;-88
2023/03/19 11:53:01;;;;;;;4.47;2.27;;;7.20;99.90;;;;;;6218216;23;20226;-89
2023/03/19 11:55:38;;;;;;;2.53;1.93;;;7.20;99.90;;;;;;6217602;23;20200;-89
2023/03/19 11:58:44;;;;;;;3.53;1.83;;;7.30;99.90;;;;;;6216915;23;20234;-89
2023/03/19 12:01:30;;;;;;;5.47;2.10;;;7.30;99.90;;;;;;6201154;23;20183;-89
2023/03/19 12:04:24;;;;;;;3.93;2.03;;;7.30;99.90;;;;;;6218768;23;20169;-88
2023/03/19 12:07:07;;;;;;;3.37;2.17;;;7.30;99.90;;;;;;6200204;23;20230;-88
2023/03/19 12:09:50;;;;;;;4.77;2.17;;;7.30;99.90;;;;;;6193773;23;20234;-88
2023/03/19 12:12:27;;;;;;;5.13;2.17;;;7.30;99.90;;;;;;6217909;23;20242;-89
2023/03/19 12:15:13;;;;;;;2.50;2.20;;;7.30;99.90;;;;;;6218049;23;20196;-89
2023/03/19 12:18:05;;;;;;;4.00;2.33;;;7.30;99.90;;;;;;6217165;23;20172;-89
2023/03/19 12:20:47;;;;;;;3.63;2.30;;;7.30;99.90;;;;;;6193007;23;20203;-90
2023/03/19 12:23:28;;;;;;;4.17;2.07;;;7.30;99.90;;;;;;6218648;23;20165;-88
2023/03/19 12:26:05;;;;;;;2.73;1.80;;;7.30;99.90;;;;;;6217338;23;20172;-90
2023/03/19 12:28:42;;;;;;;2.27;1.90;;;7.30;99.90;;;;;;6217265;23;20561;-88
2023/03/19 12:31:36;;;;;;;3.40;1.90;;;7.30;99.90;;;;;;6217664;23;20701;-87
2023/03/19 12:34:28;;;;;;;2.87;1.93;;;7.30;99.90;;;;;;6217495;23;20169;-89
2023/03/19 12:37:11;;;;;;;3.40;2.10;;;7.30;99.90;;;;;;6218176;23;20172;-89
2023/03/19 12:39:52;;;;;;;3.77;2.20;;;7.30;99.90;;;;;;6215906;23;20184;-89
2023/03/19 12:42:28;;;;;;;3.83;1.90;;;7.30;99.90;;;;;;6218698;23;20168;-89
2023/03/19 12:45:03;;;;;;;4.33;2.67;;;7.40;99.90;;;;;;6217880;23;20192;-88
2023/03/19 12:47:39;;;;;;;5.63;2.03;;;7.30;99.90;;;;;;6216329;23;20213;-88
2023/03/19 12:50:18;;;;;;;2.87;1.90;;;7.30;99.90;;;;;;6217304;23;20172;-88
2023/03/19 12:52:54;;;;;;;4.53;2.10;;;7.30;99.90;;;;;;6217525;23;20177;-88
2023/03/19 12:55:38;;;;;;;2.03;1.77;;;7.30;99.90;;;;;;6216793;23;20203;-88
2023/03/19 12:58:20;;;;;;;3.17;1.73;;;7.30;99.90;;;;;;6215794;23;20184;-89
2023/03/19 13:01:00;;;;;;;4.03;2.00;;;7.20;99.90;;;;;;6216962;23;20543;-89
2023/03/19 13:03:40;;;;;;;4.70;2.20;;;7.20;99.90;;;;;;6191346;23;20223;-88
2023/03/19 13:06:21;;;;;;;3.40;1.97;;;7.10;99.90;;;;;;6193872;23;20176;-88
2023/03/19 13:08:58;;;;;;;4.20;1.87;;;7.10;99.90;;;;;;6216661;23;20226;-88
2023/03/19 13:11:38;;;;;;;2.97;2.03;;;7.00;99.90;;;;;;6218416;23;20173;-88
2023/03/19 13:14:21;;;;;;;4.17;2.40;;;7.00;99.90;;;;;;6216509;23;20195;-88
2023/03/19 13:16:58;;;;;;;3.80;2.20;;;7.00;99.90;;;;;;6217495;23;20172;-89
2023/03/19 13:19:36;;;;;;;5.80;1.70;;;6.90;99.90;;;;;;6216781;23;20176;-89
2023/03/19 13:22:14;;;;;;;3.63;1.97;;;6.90;99.90;;;;;;6217779;23;20169;-88
2023/03/19 13:24:47;;;;;;;3.10;1.80;;;6.90;99.90;;;;;;6218152;23;20176;-89
2023/03/19 13:27:23;;;;;;;5.10;2.10;;;6.80;99.90;;;;;;6217177;23;20180;-88
2023/03/19 13:30:02;;;;;;;4.83;1.77;;;6.80;99.90;;;;;;6217884;23;20164;-89